Time;durP1;ratioP1;P1;durP2;ratioP2;P2;SDS_P1;SDS_P2;PMS_P1;PMS_P2;Temp;Humidity;BMP_temperature;BMP_pressure;BME280_temperature;BME280_humidity;BME280_pressure;Samples;Min_cycle;Max_cycle;Signal;HPM_P1;HPM_P2
2022/01/09 00:00:34;;;;;;;33.63;4.57;;;8.30;99.90;;;;;;7347130;19;109957;-81
2022/01/09 00:03:01;;;;;;;36.85;5.13;;;8.40;99.90;;;;;;7349066;19;112258;-81
2022/01/09 00:05:28;;;;;;;35.40;4.65;;;8.30;99.90;;;;;;7344682;19;109460;-82
2022/01/09 00:07:55;;;;;;;34.10;4.35;;;8.30;99.90;;;;;;7343966;19;111667;-81
2022/01/09 00:10:23;;;;;;;33.20;4.03;;;8.30;99.90;;;;;;7343195;19;111134;-81
2022/01/09 00:12:50;;;;;;;38.78;5.43;;;8.30;99.90;;;;;;7345668;19;110662;-81
2022/01/09 00:15:17;;;;;;;36.63;5.75;;;8.20;99.90;;;;;;7341227;19;109786;-81
2022/01/09 00:17:44;;;;;;;30.48;4.20;;;8.20;99.90;;;;;;7342477;19;111854;-82
2022/01/09 00:20:12;;;;;;;23.35;3.40;;;8.20;99.90;;;;;;7342988;19;109206;-80
2022/01/09 00:22:48;;;;;;;21.50;3.85;;;8.20;99.90;;;;;;7344957;19;114386;-80
2022/01/09 00:25:18;;;;;;;20.45;3.17;;;8.00;99.90;;;;;;7347088;19;112175;-82
2022/01/09 00:27:46;;;;;;;18.40;3.42;;;8.00;99.90;;;;;;7341987;19;111043;-81
2022/01/09 00:30:14;;;;;;;25.83;3.58;;;7.90;99.90;;;;;;7341445;19;112550;-80
2022/01/09 00:32:42;;;;;;;23.73;3.55;;;7.80;99.90;;;;;;7341808;19;109363;-81
2022/01/09 00:35:10;;;;;;;27.80;4.15;;;7.80;99.90;;;;;;7343358;19;111062;-80
2022/01/09 00:37:38;;;;;;;34.63;4.75;;;7.80;99.90;;;;;;7341825;19;112417;-81
2022/01/09 00:40:08;;;;;;;32.08;4.65;;;7.90;99.90;;;;;;7344919;19;109697;-80
2022/01/09 00:42:35;;;;;;;44.22;5.30;;;7.90;99.90;;;;;;7343568;19;111343;-80
2022/01/09 00:45:03;;;;;;;40.80;5.40;;;7.90;99.90;;;;;;7343332;19;111936;-80
2022/01/09 00:47:30;;;;;;;38.75;5.30;;;7.90;99.90;;;;;;7347364;19;109884;-81
2022/01/09 00:49:58;;;;;;;;;;;8.00;99.90;;;;;;7343096;19;115196;-81
2022/01/09 00:52:25;;;;;;;31.70;4.05;;;8.00;99.90;;;;;;7348207;19;109730;-80
2022/01/09 00:54:52;;;;;;;30.67;4.05;;;8.00;99.90;;;;;;7339505;19;113976;-81
2022/01/09 00:57:19;;;;;;;;;;;7.90;99.90;;;;;;7344542;19;112102;-81
2022/01/09 00:59:46;;;;;;;27.92;4.35;;;7.90;99.90;;;;;;7343587;19;110564;-80
2022/01/09 01:02:12;;;;;;;;;;;7.90;99.90;;;;;;7344904;19;111225;-80
2022/01/09 01:04:40;;;;;;;21.37;3.10;;;7.80;99.90;;;;;;7343875;19;112054;-80
2022/01/09 01:07:08;;;;;;;31.15;3.75;;;7.90;99.90;;;;;;7349779;19;109776;-80
2022/01/09 01:09:35;;;;;;;29.63;4.45;;;7.90;99.90;;;;;;7340996;19;111011;-81
2022/01/09 01:12:02;;;;;;;34.47;3.75;;;7.80;99.90;;;;;;7343249;19;110706;-81
2022/01/09 01:14:32;;;;;;;49.90;5.68;;;7.80;99.90;;;;;;7341877;19;111238;-81
2022/01/09 01:16:59;;;;;;;40.15;5.70;;;7.80;99.90;;;;;;7338452;19;115372;-81
2022/01/09 01:19:27;;;;;;;34.33;4.60;;;7.80;99.90;;;;;;7341237;19;110100;-80
2022/01/09 01:21:55;;;;;;;32.85;4.05;;;7.80;99.90;;;;;;7340459;19;111286;-81
2022/01/09 01:24:22;;;;;;;45.97;5.05;;;7.90;99.90;;;;;;7343207;19;115210;-80
2022/01/09 01:26:49;;;;;;;50.13;5.72;;;7.90;99.90;;;;;;7338181;19;109534;-81
2022/01/09 01:29:17;;;;;;;41.50;5.00;;;7.90;99.90;;;;;;7347910;19;111968;-81
2022/01/09 01:31:44;;;;;;;44.17;4.88;;;7.90;99.90;;;;;;7340660;19;109707;-81
2022/01/09 01:34:12;;;;;;;;;;;7.90;99.90;;;;;;7342285;19;109898;-81
2022/01/09 01:36:40;;;;;;;36.00;4.20;;;7.90;99.90;;;;;;7340850;19;112969;-81
2022/01/09 01:39:07;;;;;;;37.67;4.63;;;7.90;99.90;;;;;;7340508;19;113917;-80
2022/01/09 01:41:35;;;;;;;36.10;5.00;;;8.00;99.90;;;;;;7344917;19;114343;-81
2022/01/09 01:44:03;;;;;;;41.40;4.55;;;8.00;99.90;;;;;;7340274;19;111722;-80
2022/01/09 01:46:30;;;;;;;40.07;5.20;;;8.00;99.90;;;;;;7343946;19;109444;-81
2022/01/09 01:48:56;;;;;;;;;;;7.90;99.90;;;;;;7339833;19;111485;-81
2022/01/09 01:51:23;;;;;;;33.70;4.00;;;7.90;99.90;;;;;;7349476;19;111888;-80
2022/01/09 01:53:54;;;;;;;32.07;4.23;;;7.90;99.90;;;;;;7339968;19;115090;-81
2022/01/09 01:56:23;;;;;;;29.23;4.07;;;7.90;99.90;;;;;;7340489;19;112124;-79
2022/01/09 01:58:50;;;;;;;33.00;4.70;;;8.00;99.90;;;;;;7338271;19;110426;-81
2022/01/09 02:01:18;;;;;;;40.38;5.25;;;8.00;99.90;;;;;;7340631;19;111183;-81
2022/01/09 02:03:45;;;;;;;32.47;4.37;;;8.00;99.90;;;;;;7342173;19;112538;-80
2022/01/09 02:06:14;;;;;;;30.95;3.70;;;8.00;99.90;;;;;;7340050;19;109455;-80
2022/01/09 02:08:43;;;;;;;28.80;3.87;;;8.00;99.90;;;;;;7341246;19;110678;-80
2022/01/09 02:11:14;;;;;;;26.33;3.13;;;8.00;99.90;;;;;;7336432;19;111959;-81
2022/01/09 02:13:45;;;;;;;25.45;4.00;;;8.00;99.90;;;;;;7347508;19;110268;-81
2022/01/09 02:16:16;;;;;;;27.50;4.15;;;8.00;99.90;;;;;;7339702;19;112128;-81
2022/01/09 02:18:47;;;;;;;20.67;2.97;;;8.00;99.90;;;;;;7339613;19;110669;-81
2022/01/09 02:21:15;;;;;;;29.45;3.38;;;8.00;99.90;;;;;;7341346;19;109997;-80
2022/01/09 02:23:46;;;;;;;24.55;3.88;;;8.00;99.90;;;;;;7338115;19;111791;-80
2022/01/09 02:26:18;;;;;;;30.85;4.25;;;8.00;99.90;;;;;;7342446;19;110710;-81
2022/01/09 02:28:48;;;;;;;30.60;3.83;;;8.00;99.90;;;;;;7337738;19;111580;-80
2022/01/09 02:31:15;;;;;;;27.95;3.78;;;7.90;99.90;;;;;;7340347;19;114707;-80
2022/01/09 02:33:43;;;;;;;26.60;3.47;;;8.00;99.90;;;;;;7338628;19;109480;-81
2022/01/09 02:36:10;;;;;;;26.75;3.67;;;8.00;99.90;;;;;;7345460;19;109898;-80
2022/01/09 02:38:38;;;;;;;29.77;3.67;;;7.90;99.90;;;;;;7338443;19;109384;-81
2022/01/09 02:41:05;;;;;;;26.52;2.92;;;8.00;99.90;;;;;;7339364;19;113786;-81
2022/01/09 02:43:32;;;;;;;19.38;3.20;;;7.90;99.90;;;;;;7341646;19;112438;-81
2022/01/09 02:46:17;;;;;;;21.13;3.50;;;8.00;99.90;;;;;;7337057;19;111858;-81
2022/01/09 02:48:45;;;;;;;25.35;4.28;;;8.10;99.90;;;;;;7347545;19;114495;-81
2022/01/09 02:51:17;;;;;;;23.08;3.50;;;8.00;99.90;;;;;;7346476;19;111839;-81
2022/01/09 02:53:56;;;;;;;24.05;3.38;;;7.90;99.90;;;;;;7347911;19;109267;-81
2022/01/09 02:56:23;;;;;;;24.63;2.72;;;7.90;99.90;;;;;;7345277;19;111289;-81
2022/01/09 02:58:50;;;;;;;24.48;3.30;;;7.90;99.90;;;;;;7351136;19;112108;-81
2022/01/09 03:01:17;;;;;;;;;;;7.90;99.90;;;;;;7349748;19;111115;-81
2022/01/09 03:03:44;;;;;;;14.40;2.30;;;7.90;99.90;;;;;;7346448;19;111953;-81
2022/01/09 03:06:11;;;;;;;26.53;3.30;;;7.90;99.90;;;;;;7348522;19;109368;-81
2022/01/09 03:08:38;;;;;;;;;;;7.80;99.90;;;;;;7344457;19;111229;-80
2022/01/09 03:11:05;;;;;;;21.03;2.57;;;7.80;99.90;;;;;;7350511;19;111921;-81
2022/01/09 03:13:33;;;;;;;20.08;2.88;;;7.80;99.90;;;;;;7345322;19;109441;-81
2022/01/09 03:16:00;;;;;;;21.90;3.03;;;7.80;99.90;;;;;;7345806;19;111500;-81
2022/01/09 03:18:27;;;;;;;16.50;2.80;;;7.80;99.90;;;;;;7348198;19;111868;-81
2022/01/09 03:20:54;;;;;;;18.88;2.88;;;7.80;99.90;;;;;;7343227;19;112464;-81
2022/01/09 03:23:21;;;;;;;15.30;2.45;;;7.80;99.90;;;;;;7346966;19;113199;-81
2022/01/09 03:25:48;;;;;;;;;;;7.80;99.90;;;;;;7345839;19;109353;-82
2022/01/09 03:28:15;;;;;;;19.17;2.97;;;7.80;99.90;;;;;;7349461;19;113181;-81
2022/01/09 03:30:41;;;;;;;;;;;7.80;99.90;;;;;;7342623;19;112281;-82
2022/01/09 03:33:08;;;;;;;16.30;3.13;;;7.70;99.90;;;;;;7348592;19;112078;-81
2022/01/09 03:35:35;;;;;;;13.73;2.60;;;7.70;99.90;;;;;;7344913;19;112556;-82
2022/01/09 03:38:03;;;;;;;15.00;2.77;;;7.70;99.90;;;;;;7342943;19;112355;-81
2022/01/09 03:40:30;;;;;;;15.02;2.28;;;7.70;99.90;;;;;;7350392;19;109650;-82
2022/01/09 03:42:57;;;;;;;16.48;2.38;;;7.80;99.90;;;;;;7344359;19;112046;-81
2022/01/09 03:45:26;;;;;;;16.73;3.00;;;7.80;99.90;;;;;;7347049;19;111379;-81
2022/01/09 03:47:54;;;;;;;16.33;2.83;;;7.70;99.90;;;;;;7341316;19;111223;-80
2022/01/09 03:50:21;;;;;;;16.95;2.90;;;7.70;99.90;;;;;;7347292;19;113973;-82
2022/01/09 03:52:49;;;;;;;17.73;2.47;;;7.70;99.90;;;;;;7344588;19;111140;-81
2022/01/09 03:55:19;;;;;;;16.17;2.63;;;7.70;99.90;;;;;;7346994;19;111395;-81
2022/01/09 03:57:48;;;;;;;18.50;3.03;;;7.70;99.90;;;;;;7342344;19;112161;-81
2022/01/09 04:00:21;;;;;;;19.00;2.38;;;7.70;99.90;;;;;;7343693;19;110077;-81
2022/01/09 04:02:49;;;;;;;14.03;2.10;;;7.70;99.90;;;;;;7349339;19;109872;-81
2022/01/09 04:05:17;;;;;;;15.33;2.70;;;7.70;99.90;;;;;;7344938;19;109590;-81
2022/01/09 04:07:44;;;;;;;22.10;2.30;;;7.60;99.90;;;;;;7345973;19;112124;-81
2022/01/09 04:10:28;;;;;;;19.17;2.80;;;7.60;99.90;;;;;;7343170;19;115209;-80
2022/01/09 04:13:00;;;;;;;12.32;1.90;;;7.50;99.90;;;;;;7345968;19;111073;-81
2022/01/09 04:15:28;;;;;;;18.53;2.90;;;7.60;99.90;;;;;;7344760;19;111420;-81
2022/01/09 04:17:56;;;;;;;19.90;2.57;;;7.60;99.90;;;;;;7342780;19;111956;-81
2022/01/09 04:20:28;;;;;;;16.20;2.57;;;7.60;99.90;;;;;;7342073;19;110278;-81
2022/01/09 04:22:57;;;;;;;19.73;2.17;;;7.60;99.90;;;;;;7341629;19;112798;-82
2022/01/09 04:25:24;;;;;;;21.97;2.87;;;7.60;99.90;;;;;;7349686;19;112272;-81
2022/01/09 04:27:53;;;;;;;18.83;3.15;;;7.50;99.90;;;;;;7342836;19;112712;-81
2022/01/09 04:30:20;;;;;;;24.67;3.17;;;7.60;99.90;;;;;;7344271;19;114290;-81
2022/01/09 04:32:47;;;;;;;20.45;3.10;;;7.50;99.90;;;;;;7340626;19;111435;-81
2022/01/09 04:35:14;;;;;;;14.57;2.17;;;7.50;99.90;;;;;;7345062;19;111074;-81
2022/01/09 04:37:42;;;;;;;18.08;3.25;;;7.50;99.90;;;;;;7341907;19;110217;-81
2022/01/09 04:40:12;;;;;;;19.05;3.05;;;7.60;99.90;;;;;;7340919;19;113158;-81
2022/01/09 04:42:48;;;;;;;20.00;2.90;;;7.60;99.90;;;;;;7342820;19;111514;-81
2022/01/09 04:45:17;;;;;;;24.57;3.83;;;7.50;99.90;;;;;;7341122;19;115171;-81
2022/01/09 04:47:47;;;;;;;21.77;3.38;;;7.50;99.90;;;;;;7350285;19;111714;-81
2022/01/09 04:50:20;;;;;;;22.83;3.30;;;7.50;99.90;;;;;;7342725;19;112854;-81
2022/01/09 04:52:51;;;;;;;18.20;2.88;;;7.50;99.90;;;;;;7344563;19;110616;-81
2022/01/09 04:55:18;;;;;;;18.98;3.10;;;7.50;99.90;;;;;;7342864;19;113340;-81
2022/01/09 04:57:45;;;;;;;21.33;2.50;;;7.50;99.90;;;;;;7341585;19;112258;-81
2022/01/09 05:00:13;;;;;;;20.08;2.45;;;7.50;99.90;;;;;;7340951;19;109874;-81
2022/01/09 05:02:40;;;;;;;14.03;2.87;;;7.40;99.90;;;;;;7341667;19;111956;-82
2022/01/09 05:05:09;;;;;;;15.02;2.30;;;7.40;99.90;;;;;;7343903;19;113500;-81
2022/01/09 05:07:36;;;;;;;19.52;2.80;;;7.40;99.90;;;;;;7340998;19;109332;-82
2022/01/09 05:10:05;;;;;;;19.83;2.37;;;7.30;99.90;;;;;;7346016;19;111251;-81
2022/01/09 05:12:32;;;;;;;17.80;2.30;;;7.40;99.90;;;;;;7340088;19;110202;-82
2022/01/09 05:15:00;;;;;;;18.23;3.00;;;7.30;99.90;;;;;;7343744;19;111359;-81
2022/01/09 05:17:27;;;;;;;13.97;2.40;;;7.40;99.90;;;;;;7341367;19;111654;-82
2022/01/09 05:19:57;;;;;;;11.53;2.50;;;7.30;99.90;;;;;;7340102;19;110979;-79
2022/01/09 05:22:26;;;;;;;15.03;2.40;;;7.40;99.90;;;;;;7342096;19;111329;-81
2022/01/09 05:24:54;;;;;;;17.17;2.20;;;7.40;99.90;;;;;;7342501;19;112432;-81
2022/01/09 05:27:22;;;;;;;15.57;2.20;;;7.30;99.90;;;;;;7343016;19;110238;-81
2022/01/09 05:29:48;;;;;;;23.57;3.27;;;7.30;99.90;;;;;;7345073;19;111278;-81
2022/01/09 05:32:15;;;;;;;;;;;7.30;99.90;;;;;;7344365;19;109555;-82
2022/01/09 05:34:42;;;;;;;16.13;2.17;;;7.20;99.90;;;;;;7345259;19;112833;-81
2022/01/09 05:37:10;;;;;;;21.50;2.53;;;7.30;99.90;;;;;;7342460;19;114870;-81
2022/01/09 05:39:37;;;;;;;16.10;2.00;;;7.20;99.90;;;;;;7340967;19;109563;-81
2022/01/09 05:42:07;;;;;;;11.67;2.10;;;7.20;99.90;;;;;;7340614;19;113112;-81
2022/01/09 05:44:34;;;;;;;14.57;2.33;;;7.20;99.90;;;;;;7343171;19;112571;-81
2022/01/09 05:47:01;;;;;;;19.40;2.10;;;7.20;99.90;;;;;;7338871;19;109545;-81
2022/01/09 05:49:29;;;;;;;9.00;2.40;;;7.20;99.90;;;;;;7344397;19;109660;-81
2022/01/09 05:51:56;;;;;;;22.27;2.33;;;7.20;99.90;;;;;;7344167;19;112097;-81
2022/01/09 05:54:23;;;;;;;16.75;1.90;;;7.20;99.90;;;;;;7342757;19;111488;-81
2022/01/09 05:56:51;;;;;;;10.23;2.20;;;7.20;99.90;;;;;;7338707;19;112084;-81
2022/01/09 05:59:19;;;;;;;19.30;2.37;;;7.20;99.90;;;;;;7341366;19;109376;-82
2022/01/09 06:01:46;;;;;;;15.98;1.88;;;7.10;99.90;;;;;;7339084;19;111873;-81
2022/01/09 06:04:13;;;;;;;15.30;2.28;;;7.10;99.90;;;;;;7339526;19;111981;-81
2022/01/09 06:06:41;;;;;;;15.03;1.93;;;7.20;99.90;;;;;;7342353;19;109545;-81
2022/01/09 06:09:09;;;;;;;19.93;2.50;;;7.10;99.90;;;;;;7339735;19;111587;-81
2022/01/09 06:11:36;;;;;;;13.87;2.20;;;7.10;99.90;;;;;;7342433;19;111766;-80
2022/01/09 06:14:03;;;;;;;12.50;2.30;;;7.10;99.90;;;;;;7344054;19;109469;-81
2022/01/09 06:16:31;;;;;;;10.13;2.13;;;7.10;99.90;;;;;;7340729;19;112017;-81
2022/01/09 06:18:58;;;;;;;;;;;7.00;99.90;;;;;;7340298;19;109449;-81
2022/01/09 06:21:27;;;;;;;19.47;2.80;;;7.00;99.90;;;;;;7345607;19;110688;-81
2022/01/09 06:23:55;;;;;;;15.03;2.67;;;6.90;99.90;;;;;;7339214;19;111877;-81
2022/01/09 06:26:22;;;;;;;17.87;2.47;;;6.90;99.90;;;;;;7340381;19;109271;-81
2022/01/09 06:28:49;;;;;;;18.27;2.57;;;6.90;99.90;;;;;;7340581;19;111099;-81
2022/01/09 06:31:16;;;;;;;17.20;3.17;;;6.80;99.90;;;;;;7339607;19;112052;-81
2022/01/09 06:33:43;;;;;;;;;;;6.80;99.90;;;;;;7341044;19;110239;-81
2022/01/09 06:36:10;;;;;;;19.50;2.00;;;6.80;99.90;;;;;;7346751;19;111022;-81
2022/01/09 06:38:37;;;;;;;12.90;2.40;;;6.70;99.90;;;;;;7340803;19;109780;-81
2022/01/09 06:41:05;;;;;;;18.63;2.70;;;6.70;99.90;;;;;;7337928;19;110709;-81
2022/01/09 06:43:32;;;;;;;20.35;3.10;;;6.70;99.90;;;;;;7341135;19;112252;-80
2022/01/09 06:45:59;;;;;;;20.07;2.87;;;6.70;99.90;;;;;;7339395;19;110521;-81
2022/01/09 06:48:26;;;;;;;15.93;2.60;;;6.70;99.90;;;;;;7339393;19;111005;-80
2022/01/09 06:50:53;;;;;;;13.53;2.43;;;6.60;99.90;;;;;;7339917;19;111784;-81
2022/01/09 06:53:20;;;;;;;;;;;6.60;99.90;;;;;;7339776;19;111616;-81
2022/01/09 06:55:47;;;;;;;15.67;2.70;;;6.60;99.90;;;;;;7342911;19;110932;-81
2022/01/09 06:58:18;;;;;;;;;;;6.60;99.90;;;;;;7342865;19;110492;-81
2022/01/09 07:00:46;;;;;;;16.50;2.50;;;6.60;99.90;;;;;;7344309;19;110840;-81
2022/01/09 07:03:13;;;;;;;18.53;2.80;;;6.50;99.90;;;;;;7338076;19;111297;-81
2022/01/09 07:05:41;;;;;;;18.07;2.77;;;6.50;99.90;;;;;;7340319;19;109264;-81
2022/01/09 07:08:09;;;;;;;17.23;2.70;;;6.50;99.90;;;;;;7338019;19;111010;-81
2022/01/09 07:10:36;;;;;;;18.83;2.83;;;6.50;99.90;;;;;;7337357;19;112339;-81
2022/01/09 07:13:04;;;;;;;19.30;3.03;;;6.60;99.90;;;;;;7341200;19;109412;-82
2022/01/09 07:15:31;;;;;;;19.30;3.07;;;6.60;99.90;;;;;;7337738;19;111931;-80
2022/01/09 07:17:58;;;;;;;14.73;3.10;;;6.60;99.90;;;;;;7340313;19;113047;-81
2022/01/09 07:20:26;;;;;;;18.97;2.90;;;6.60;99.90;;;;;;7340138;19;110459;-81
2022/01/09 07:22:53;;;;;;;17.30;3.03;;;6.60;99.90;;;;;;7340928;19;113190;-82
2022/01/09 07:25:20;;;;;;;12.07;2.23;;;6.60;99.90;;;;;;7334687;19;110477;-81
2022/01/09 07:27:47;;;;;;;11.37;2.07;;;6.60;99.90;;;;;;7339469;19;111459;-81
2022/01/09 07:30:14;;;;;;;16.50;2.33;;;6.60;99.90;;;;;;7334814;19;112168;-81
2022/01/09 07:32:41;;;;;;;15.33;2.33;;;6.50;99.90;;;;;;7338584;19;109436;-81
2022/01/09 07:35:09;;;;;;;13.10;2.30;;;6.50;99.90;;;;;;7341944;19;114924;-81
2022/01/09 07:37:36;;;;;;;14.77;2.17;;;6.40;99.90;;;;;;7343675;19;114793;-81
2022/01/09 07:40:04;;;;;;;13.17;2.00;;;6.40;99.90;;;;;;7351251;19;112357;-81
2022/01/09 07:42:31;;;;;;;16.03;2.17;;;6.40;99.90;;;;;;7343955;19;112439;-81
2022/01/09 07:44:59;;;;;;;9.40;1.87;;;6.40;99.90;;;;;;7346779;19;109850;-80
2022/01/09 07:47:26;;;;;;;9.73;1.90;;;6.40;99.90;;;;;;7342956;19;113394;-81
2022/01/09 07:49:53;;;;;;;15.00;2.33;;;6.40;99.90;;;;;;7345754;19;111973;-81
2022/01/09 07:52:20;;;;;;;10.47;2.00;;;6.40;99.90;;;;;;7347840;19;109805;-80
2022/01/09 07:54:47;;;;;;;8.57;2.00;;;6.40;99.90;;;;;;7342701;19;111374;-81
2022/01/09 07:57:14;;;;;;;10.00;2.00;;;6.40;99.90;;;;;;7346679;19;111994;-81
2022/01/09 07:59:41;;;;;;;8.60;2.20;;;6.30;99.90;;;;;;7343571;19;109514;-81
2022/01/09 08:02:09;;;;;;;10.00;2.20;;;6.40;99.90;;;;;;7350661;19;111384;-81
2022/01/09 08:04:36;;;;;;;10.70;2.33;;;6.30;99.90;;;;;;7345004;19;111145;-81
2022/01/09 08:07:04;;;;;;;13.40;2.60;;;6.30;99.90;;;;;;7343009;19;111024;-80
2022/01/09 08:09:31;;;;;;;11.37;2.40;;;6.30;99.90;;;;;;7344773;19;110700;-81
2022/01/09 08:11:57;;;;;;;;;;;6.40;99.90;;;;;;7345132;19;109328;-81
2022/01/09 08:14:25;;;;;;;16.23;2.73;;;6.30;99.90;;;;;;7348553;19;111063;-81
2022/01/09 08:16:52;;;;;;;11.50;2.23;;;6.30;99.90;;;;;;7342075;19;111504;-81
2022/01/09 08:19:18;;;;;;;17.27;2.77;;;6.40;99.90;;;;;;7345113;19;109453;-81
2022/01/09 08:21:45;;;;;;;;;;;6.40;99.90;;;;;;7340590;19;110175;-81
2022/01/09 08:24:14;;;;;;;17.53;2.33;;;6.40;99.90;;;;;;7350343;19;115871;-81
2022/01/09 08:26:41;;;;;;;12.50;2.80;;;6.30;99.90;;;;;;7336415;19;111053;-81
2022/01/09 08:29:08;;;;;;;19.20;2.97;;;6.40;99.90;;;;;;7343488;19;113685;-81
2022/01/09 08:31:35;;;;;;;14.50;2.87;;;6.40;99.90;;;;;;7344729;19;109864;-81
2022/01/09 08:34:02;;;;;;;11.70;2.50;;;6.40;99.90;;;;;;7342878;19;114513;-81
2022/01/09 08:36:33;;;;;;;17.83;2.63;;;6.40;99.90;;;;;;7344835;19;111944;-81
2022/01/09 08:39:00;;;;;;;14.07;2.80;;;6.40;99.90;;;;;;7341920;19;109626;-81
2022/01/09 08:41:27;;;;;;;10.97;2.10;;;6.50;99.90;;;;;;7341391;19;111733;-81
2022/01/09 08:43:54;;;;;;;;;;;6.50;99.90;;;;;;7343335;19;110681;-81
2022/01/09 08:46:21;;;;;;;13.77;3.27;;;6.40;99.90;;;;;;7349360;19;109526;-81
2022/01/09 08:48:49;;;;;;;6.50;2.33;;;6.40;99.90;;;;;;7345108;19;111206;-81
2022/01/09 08:51:16;;;;;;;17.23;2.70;;;6.50;99.90;;;;;;7341186;19;110569;-82
2022/01/09 08:53:50;;;;;;;14.40;2.60;;;6.50;99.90;;;;;;7342429;19;109746;-82
2022/01/09 08:56:22;;;;;;;14.03;2.53;;;6.50;99.90;;;;;;7342268;19;110458;-81
2022/01/09 08:58:50;;;;;;;12.07;2.77;;;6.50;99.90;;;;;;7339882;19;109405;-81
2022/01/09 09:01:36;;;;;;;14.73;2.78;;;6.50;99.90;;;;;;7343100;19;113227;-80
2022/01/09 09:04:04;;;;;;;18.67;2.70;;;6.50;99.90;;;;;;7341759;19;112135;-80
2022/01/09 09:06:31;;;;;;;14.13;2.60;;;6.50;99.90;;;;;;7342802;19;110023;-80
2022/01/09 09:08:58;;;;;;;16.37;2.97;;;6.60;99.90;;;;;;7347420;19;112641;-81
2022/01/09 09:11:25;;;;;;;14.73;2.43;;;6.60;99.90;;;;;;7340677;19;109585;-80
2022/01/09 09:13:54;;;;;;;11.47;2.57;;;6.60;99.90;;;;;;7345665;19;111788;-80
2022/01/09 09:16:21;;;;;;;13.13;2.13;;;6.60;99.90;;;;;;7341131;19;111778;-80
2022/01/09 09:18:48;;;;;;;;;;;6.60;99.90;;;;;;7343957;19;109437;-80
2022/01/09 09:21:16;;;;;;;13.57;1.90;;;6.60;99.90;;;;;;7345490;19;110945;-80
2022/01/09 09:23:43;;;;;;;11.27;2.17;;;6.60;99.90;;;;;;7345173;19;111531;-80
2022/01/09 09:26:10;;;;;;;10.00;2.50;;;6.60;99.90;;;;;;7341058;19;112243;-80
2022/01/09 09:28:38;;;;;;;16.13;2.63;;;6.70;99.90;;;;;;7346639;19;111724;-80
2022/01/09 09:31:05;;;;;;;15.83;2.60;;;6.70;99.90;;;;;;7340427;19;110004;-80
2022/01/09 09:33:32;;;;;;;11.70;2.40;;;6.70;99.90;;;;;;7343154;19;111151;-80
2022/01/09 09:36:00;;;;;;;11.67;3.27;;;6.80;99.90;;;;;;7340509;19;110554;-80
2022/01/09 09:38:27;;;;;;;16.23;3.23;;;6.80;99.90;;;;;;7340911;19;109269;-80
2022/01/09 09:40:55;;;;;;;15.30;3.20;;;6.80;99.90;;;;;;7341235;19;111629;-80
2022/01/09 09:43:22;;;;;;;14.53;2.87;;;6.80;99.90;;;;;;7340424;19;112158;-80
2022/01/09 09:45:51;;;;;;;15.77;3.23;;;6.80;99.90;;;;;;7344053;19;109343;-80
2022/01/09 09:48:19;;;;;;;16.00;2.80;;;6.90;99.90;;;;;;7339641;19;111108;-80
2022/01/09 09:50:46;;;;;;;19.93;3.40;;;6.90;99.90;;;;;;7344526;19;114483;-81
2022/01/09 09:53:13;;;;;;;15.80;3.13;;;7.00;99.90;;;;;;7341201;19;111574;-80
2022/01/09 09:55:41;;;;;;;14.30;3.10;;;7.10;99.90;;;;;;7338909;19;111678;-80
2022/01/09 09:58:08;;;;;;;15.10;2.93;;;7.20;99.90;;;;;;7339185;19;109594;-80
2022/01/09 10:00:35;;;;;;;;;;;7.20;99.90;;;;;;7339347;19;111178;-80
2022/01/09 10:03:03;;;;;;;21.50;3.17;;;7.30;99.90;;;;;;7344258;19;112290;-80
2022/01/09 10:05:38;;;;;;;18.80;3.00;;;7.30;99.90;;;;;;7339433;19;109431;-80
2022/01/09 10:08:06;;;;;;;14.97;3.13;;;7.40;99.90;;;;;;7343612;19;111176;-80
2022/01/09 10:10:38;;;;;;;13.77;3.00;;;7.40;99.90;;;;;;7341066;19;111687;-80
2022/01/09 10:13:18;;;;;;;21.33;3.63;;;7.50;99.90;;;;;;7345153;19;109675;-80
2022/01/09 10:15:55;;;;;;;18.33;3.08;;;7.50;99.90;;;;;;7339052;19;112064;-79
2022/01/09 10:18:40;;;;;;;18.63;3.08;;;7.50;99.90;;;;;;7340015;19;109569;-80
2022/01/09 10:21:16;;;;;;;20.00;3.07;;;7.50;99.90;;;;;;7340734;19;113155;-79
2022/01/09 10:24:04;;;;;;;16.27;2.80;;;7.50;99.90;;;;;;7336931;19;111714;-80
2022/01/09 10:26:40;;;;;;;21.80;3.70;;;7.50;99.90;;;;;;7339755;19;110609;-80
2022/01/09 10:29:08;;;;;;;13.97;3.10;;;7.50;99.90;;;;;;7339957;19;114298;-79
2022/01/09 10:31:47;;;;;;;20.38;3.15;;;7.40;99.90;;;;;;7337646;19;111873;-79
2022/01/09 10:34:17;;;;;;;15.70;2.60;;;7.40;99.90;;;;;;7340492;19;112631;-80
2022/01/09 10:36:48;;;;;;;14.70;2.50;;;7.40;99.90;;;;;;7340939;19;109876;-80
2022/01/09 10:39:17;;;;;;;15.73;2.63;;;7.40;99.90;;;;;;7341300;19;109320;-80
2022/01/09 10:41:50;;;;;;;12.07;2.63;;;7.40;99.90;;;;;;7340189;19;111338;-79
2022/01/09 10:44:21;;;;;;;17.20;3.33;;;7.40;99.90;;;;;;7340573;19;111926;-79
2022/01/09 10:46:57;;;;;;;13.13;3.45;;;7.40;99.90;;;;;;7338934;19;109401;-80
2022/01/09 10:49:34;;;;;;;16.43;3.30;;;7.40;99.90;;;;;;7338263;19;111643;-80
2022/01/09 10:52:14;;;;;;;16.87;3.77;;;7.40;99.90;;;;;;7339436;19;112149;-80
2022/01/09 10:54:42;;;;;;;15.47;3.60;;;7.40;99.90;;;;;;7335702;19;110800;-80
2022/01/09 10:57:18;;;;;;;19.67;4.20;;;7.40;99.90;;;;;;7336279;19;110283;-80
2022/01/09 10:59:46;;;;;;;17.57;4.10;;;7.50;99.90;;;;;;7338323;19;111766;-80
2022/01/09 11:02:13;;;;;;;19.08;4.07;;;7.50;99.90;;;;;;7335648;19;110728;-79
2022/01/09 11:04:42;;;;;;;19.45;3.70;;;7.50;99.90;;;;;;7338515;19;110503;-80
2022/01/09 11:07:10;;;;;;;19.88;3.88;;;7.60;99.90;;;;;;7338336;19;109816;-79
2022/01/09 11:09:45;;;;;;;20.35;3.72;;;7.60;99.90;;;;;;7344876;19;111448;-80
2022/01/09 11:12:19;;;;;;;17.52;3.28;;;7.70;99.90;;;;;;7345213;19;112115;-80
2022/01/09 11:14:49;;;;;;;24.90;3.78;;;7.80;99.90;;;;;;7342511;19;110305;-79
2022/01/09 11:17:17;;;;;;;19.50;3.03;;;7.90;99.90;;;;;;7347494;19;114009;-79
2022/01/09 11:19:45;;;;;;;16.20;2.92;;;8.10;99.90;;;;;;7344396;19;111901;-79
2022/01/09 11:22:12;;;;;;;20.90;3.42;;;8.20;99.90;;;;;;7349749;19;109498;-79
2022/01/09 11:24:54;;;;;;;20.88;3.60;;;8.30;99.90;;;;;;7343517;19;112052;-80
2022/01/09 11:27:40;;;;;;;26.42;3.92;;;8.30;99.90;;;;;;7345140;19;109742;-80
2022/01/09 11:30:15;;;;;;;22.00;3.90;;;8.40;99.90;;;;;;7330191;19;112327;-80
2022/01/09 11:33:16;;;;;;;16.02;3.42;;;8.40;99.90;;;;;;7336266;19;111818;-79
2022/01/09 11:35:57;;;;;;;18.77;3.33;;;8.50;99.90;;;;;;7347561;19;109288;-79
2022/01/09 11:38:30;;;;;;;16.60;3.33;;;8.60;99.90;;;;;;7343811;19;110690;-79
2022/01/09 11:41:28;;;;;;;16.08;3.63;;;8.60;99.90;;;;;;7342856;19;110482;-79
2022/01/09 11:44:00;;;;;;;18.88;3.00;;;8.60;99.90;;;;;;7350097;19;110282;-79
2022/01/09 11:46:30;;;;;;;18.75;3.30;;;8.70;99.90;;;;;;7344544;19;110424;-79
2022/01/09 11:49:01;;;;;;;16.65;3.97;;;8.70;99.90;;;;;;7345094;19;109540;-79
2022/01/09 11:51:30;;;;;;;16.05;3.20;;;8.80;99.90;;;;;;7346430;19;111153;-79
2022/01/09 11:54:11;;;;;;;15.85;3.10;;;8.90;99.90;;;;;;7343218;19;110491;-79
2022/01/09 11:56:49;;;;;;;26.17;3.13;;;9.00;99.90;;;;;;7346360;19;111742;-79
2022/01/09 11:59:40;;;;;;;28.15;4.63;;;9.00;99.90;;;;;;7343663;19;114312;-79
2022/01/09 12:02:14;;;;;;;21.13;3.10;;;9.10;99.90;;;;;;7344577;19;110779;-79
2022/01/09 12:04:41;;;;;;;17.55;3.10;;;9.10;99.90;;;;;;7343382;19;109364;-79
2022/01/09 12:07:14;;;;;;;;;;;9.20;99.90;;;;;;7349006;19;110984;-79
2022/01/09 12:09:46;;;;;;;17.95;3.53;;;9.20;99.90;;;;;;7348754;19;110368;-79
2022/01/09 12:12:16;;;;;;;17.73;3.30;;;9.20;99.90;;;;;;7340837;19;111211;-80
2022/01/09 12:17:22;;;;;;;15.60;3.20;;;9.30;99.90;;;;;;7343997;19;110384;-80
2022/01/09 12:20:12;;;;;;;14.30;2.67;;;9.40;99.90;;;;;;7344485;19;111249;-79
2022/01/09 12:22:51;;;;;;;15.27;3.30;;;9.40;99.90;;;;;;7343722;19;112070;-79
2022/01/09 12:25:24;;;;;;;19.38;3.22;;;9.40;99.90;;;;;;7339871;19;110878;-80
2022/01/09 12:28:01;;;;;;;17.50;3.22;;;9.60;99.90;;;;;;7345367;19;111383;-79
2022/01/09 12:30:48;;;;;;;18.60;3.03;;;9.70;99.90;;;;;;7348619;19;112532;-81
2022/01/09 12:33:27;;;;;;;14.73;3.25;;;9.70;99.90;;;;;;7341403;19;112986;-79
2022/01/09 12:35:56;;;;;;;20.40;3.78;;;9.80;99.90;;;;;;7345251;19;114504;-78
2022/01/09 12:38:25;;;;;;;24.52;3.33;;;9.70;99.90;;;;;;7340095;19;109446;-79
2022/01/09 12:41:01;;;;;;;31.08;3.85;;;9.80;99.90;;;;;;7345085;19;109949;-79
2022/01/09 12:43:32;;;;;;;14.07;3.07;;;9.70;99.90;;;;;;7341269;19;109860;-79
2022/01/09 12:46:10;;;;;;;18.98;3.17;;;9.60;99.90;;;;;;7332384;19;109657;-79
2022/01/09 12:48:40;;;;;;;16.27;3.15;;;9.60;99.90;;;;;;7332772;19;111228;-79
2022/01/09 12:51:08;;;;;;;17.80;3.30;;;9.40;99.90;;;;;;7332438;19;113216;-78
2022/01/09 12:53:44;;;;;;;10.50;2.85;;;9.40;99.90;;;;;;7336437;19;110915;-79
2022/01/09 12:56:12;;;;;;;14.07;3.83;;;9.20;99.90;;;;;;7332365;19;115934;-79